Time;durP1;ratioP1;P1;durP2;ratioP2;P2;SDS_P1;SDS_P2;PMS_P1;PMS_P2;Temp;Humidity;BMP_temperature;BMP_pressure;BME280_temperature;BME280_humidity;BME280_pressure;Samples;Min_cycle;Max_cycle;Signal;HPM_P1;HPM_P2
2022/02/16 00:02:08;;;;;;;16.43;10.10;;;;;;;0.55;81.74;100197.94;1782672;80;21514;-73
2022/02/16 00:04:36;;;;;;;21.70;11.30;;;;;;;0.53;81.87;100194.14;1745204;81;21552;-77
2022/02/16 00:07:03;;;;;;;16.80;10.83;;;;;;;0.52;82.02;100193.01;1761360;81;21008;-77
2022/02/16 00:09:30;;;;;;;14.97;11.03;;;;;;;0.54;82.15;100188.34;1761627;81;20995;-75
2022/02/16 00:11:57;;;;;;;13.23;9.50;;;;;;;0.58;82.15;100185.67;1746255;81;21139;-75
2022/02/16 00:14:23;;;;;;;18.03;11.43;;;;;;;0.63;82.16;100188.13;1761360;80;20972;-76
2022/02/16 00:16:50;;;;;;;15.67;10.60;;;;;;;0.65;82.06;100186.64;1774755;80;21061;-75
2022/02/16 00:19:16;;;;;;;19.77;12.07;;;;;;;0.70;82.11;100179.02;1725491;82;21062;-78
2022/02/16 00:21:42;;;;;;;21.07;13.17;;;;;;;0.70;81.99;100177.69;1727173;82;21099;-73
2022/02/16 00:24:09;;;;;;;24.47;13.40;;;;;;;0.71;82.04;100170.08;1741563;81;21096;-76
2022/02/16 00:26:35;;;;;;;23.00;13.07;;;;;;;0.74;82.08;100166.58;1738213;82;21550;-75
2022/02/16 00:29:02;;;;;;;18.30;12.37;;;;;;;0.85;82.07;100164.03;1753873;81;21038;-75
2022/02/16 00:31:28;;;;;;;19.27;11.90;;;;;;;0.90;81.79;100163.50;1752600;81;20985;-76
2022/02/16 00:33:54;;;;;;;19.70;12.93;;;;;;;0.90;81.72;100160.85;1725663;83;21054;-75
2022/02/16 00:36:21;;;;;;;16.63;11.10;;;;;;;0.89;81.52;100161.35;1753635;81;21139;-77
2022/02/16 00:38:49;;;;;;;18.80;13.03;;;;;;;0.86;81.50;100155.09;1722786;82;20955;-76
2022/02/16 00:41:17;;;;;;;19.10;13.83;;;;;;;0.84;81.45;100157.08;1705911;83;21528;-75
2022/02/16 00:43:43;;;;;;;23.70;15.23;;;;;;;0.84;81.52;100152.61;1687090;84;21611;-75
2022/02/16 00:46:10;;;;;;;26.50;16.70;;;;;;;0.83;81.44;100152.28;1652471;85;21653;-85
2022/02/16 00:48:37;;;;;;;25.60;15.80;;;;;;;0.82;81.37;100146.66;1707796;84;21141;-80
2022/02/16 00:51:04;;;;;;;27.73;15.83;;;;;;;0.86;81.43;100143.18;1678778;85;21056;-81
2022/02/16 00:53:32;;;;;;;28.20;17.73;;;;;;;0.86;81.22;100147.95;1707490;84;21141;-79
2022/02/16 00:55:58;;;;;;;38.17;18.60;;;;;;;0.81;81.22;100146.36;1656958;85;21512;-72
2022/02/16 00:58:25;;;;;;;32.60;18.13;;;;;;;0.75;81.24;100137.78;1667684;84;21108;-70
2022/02/16 01:00:51;;;;;;;28.57;17.53;;;;;;;0.74;81.40;100132.16;1705480;84;21876;-73
2022/02/16 01:03:18;;;;;;;29.83;16.67;;;;;;;0.76;81.49;100138.11;1721777;82;21013;-72
2022/02/16 01:05:50;;;;;;;36.70;20.80;;;;;;;0.81;81.53;100130.97;1699044;82;21014;-75
2022/02/16 01:08:14;;;;;;;27.40;16.47;;;;;;;0.83;81.38;100135.57;1707932;82;21042;-74
2022/02/16 01:10:41;;;;;;;34.07;19.47;;;;;;;0.82;81.26;100138.71;1707261;84;21512;-74
2022/02/16 01:13:09;;;;;;;27.50;14.53;;;;;;;0.80;81.19;100131.47;1710268;83;21164;-72
2022/02/16 01:15:36;;;;;;;25.53;14.27;;;;;;;0.79;81.31;100134.28;1698244;84;20991;-73
2022/02/16 01:18:04;;;;;;;28.83;15.27;;;;;;;0.77;81.31;100131.80;1717556;82;20970;-78
2022/02/16 01:20:38;;;;;;;25.37;13.67;;;;;;;0.74;81.36;100130.84;1697877;84;21066;-75
2022/02/16 01:23:07;;;;;;;23.13;14.87;;;;;;;0.74;81.46;100128.19;1699313;84;21547;-74
2022/02/16 01:25:33;;;;;;;27.97;16.30;;;;;;;0.71;81.56;100129.05;1683141;84;21043;-75
2022/02/16 01:28:01;;;;;;;26.80;15.37;;;;;;;0.76;81.70;100121.41;1690546;84;21039;-74
2022/02/16 01:30:30;;;;;;;32.47;17.10;;;;;;;0.79;81.67;100123.19;1690593;84;21513;-76
2022/02/16 01:32:58;;;;;;;29.47;15.97;;;;;;;0.79;81.52;100120.55;1694173;84;21038;-74
2022/02/16 01:35:26;;;;;;;28.33;17.67;;;;;;;0.81;81.62;100124.35;1699433;84;21086;-74
2022/02/16 01:37:52;;;;;;;26.37;14.90;;;;;;;0.76;81.50;100114.29;1702673;83;21126;-74
2022/02/16 01:40:19;;;;;;;28.30;18.40;;;;;;;0.77;81.56;100110.62;1706438;83;21181;-74
2022/02/16 01:42:48;;;;;;;33.37;19.20;;;;;;;0.73;81.35;100104.53;1701964;81;21067;-74
2022/02/16 01:45:27;;;;;;;39.37;20.57;;;;;;;0.60;81.43;100101.16;1723594;83;21034;-74
2022/02/16 01:47:55;;;;;;;33.97;19.93;;;;;;;0.51;81.65;100094.27;1723583;83;21014;-75
2022/02/16 01:50:22;;;;;;;36.30;20.73;;;;;;;0.47;81.78;100096.95;1696066;84;21104;-74
2022/02/16 01:52:49;;;;;;;33.80;21.80;;;;;;;0.37;81.94;100091.87;1711094;83;21062;-75
2022/02/16 01:55:15;;;;;;;29.93;20.33;;;;;;;0.31;82.16;100087.27;1735292;81;21077;-76
2022/02/16 01:57:43;;;;;;;28.47;16.80;;;;;;;0.31;82.46;100088.59;1742267;81;21011;-73
2022/02/16 02:00:13;;;;;;;35.90;22.87;;;;;;;0.29;82.56;100087.94;1756274;81;20984;-77
2022/02/16 02:02:46;;;;;;;35.37;23.43;;;;;;;0.30;82.74;100087.44;1731525;81;21909;-75
2022/02/16 02:05:17;;;;;;;29.20;20.40;;;;;;;0.34;82.79;100094.85;1724184;83;21520;-75
2022/02/16 02:07:44;;;;;;;38.63;23.73;;;;;;;0.39;82.83;100097.80;1752999;81;20982;-81
2022/02/16 02:10:11;;;;;;;37.80;22.97;;;;;;;0.41;82.72;100094.50;1726569;81;21547;-78
2022/02/16 02:12:47;;;;;;;38.47;25.00;;;;;;;0.39;82.71;100088.54;1752708;81;21009;-81
2022/02/16 02:15:15;;;;;;;32.17;21.07;;;;;;;0.32;82.64;100086.28;1719342;83;21114;-79
2022/02/16 02:17:55;;;;;;;39.77;24.20;;;;;;;0.28;82.93;100083.67;1729921;81;20999;-77
2022/02/16 02:20:24;;;;;;;39.27;25.23;;;;;;;0.24;83.04;100082.34;1725143;83;21626;-78
2022/02/16 02:22:51;;;;;;;36.83;23.43;;;;;;;0.18;83.11;100081.73;1727909;81;21036;-79
2022/02/16 02:25:18;;;;;;;47.73;29.07;;;;;;;0.16;83.37;100089.50;1741576;82;21084;-76
2022/02/16 02:27:45;;;;;;;49.87;32.13;;;;;;;0.13;83.55;100089.86;1766478;81;21071;-78
2022/02/16 02:30:12;;;;;;;53.77;35.70;;;;;;;0.09;83.74;100092.03;1769406;80;20942;-78
2022/02/16 02:32:45;;;;;;;59.10;35.13;;;;;;;0.05;83.87;100091.23;1723568;83;21065;-81
2022/02/16 02:35:12;;;;;;;44.35;26.50;;;;;;;0.06;84.11;100082.27;1735396;82;21513;-79
2022/02/16 02:37:39;;;;;;;56.27;33.37;;;;;;;0.10;84.22;100078.28;1737170;82;21042;-80
2022/02/16 02:40:06;;;;;;;61.33;31.50;;;;;;;0.13;84.31;100077.95;1734250;81;21528;-79
2022/02/16 02:42:38;;;;;;;50.73;31.77;;;;;;;0.22;84.43;100070.30;1711106;82;20938;-79
2022/02/16 02:45:07;;;;;;;49.63;29.97;;;;;;;0.27;84.33;100067.96;1737539;82;21023;-79
2022/02/16 02:47:34;;;;;;;46.40;28.87;;;;;;;0.25;84.31;100069.45;1720008;82;21096;-77
2022/02/16 02:50:00;;;;;;;46.93;28.17;;;;;;;0.30;84.46;100071.56;1705108;83;21036;-79
2022/02/16 02:52:26;;;;;;;41.63;25.37;;;;;;;0.34;84.45;100068.40;1711933;83;21492;-79
2022/02/16 02:54:53;;;;;;;44.93;28.43;;;;;;;0.34;84.38;100069.72;1717544;83;21037;-79
2022/02/16 02:57:20;;;;;;;31.93;18.67;;;;;;;0.35;84.47;100063.94;1714798;83;21523;-80
2022/02/16 02:59:46;;;;;;;37.87;24.10;;;;;;;0.42;84.50;100067.54;1731348;81;21035;-81
2022/02/16 03:02:14;;;;;;;41.10;24.83;;;;;;;0.39;84.38;100068.70;1714937;81;21035;-78
2022/02/16 03:04:40;;;;;;;33.57;22.83;;;;;;;0.37;84.43;100070.72;1761017;80;21119;-77
2022/02/16 03:07:06;;;;;;;33.43;24.13;;;;;;;0.35;84.56;100066.09;1740207;82;21013;-78
2022/02/16 03:09:33;;;;;;;33.73;20.90;;;;;;;0.30;84.64;100068.42;1752693;81;21046;-73
2022/02/16 03:12:00;;;;;;;39.53;23.33;;;;;;;0.31;84.92;100070.58;1733947;81;21039;-74
2022/02/16 03:14:28;;;;;;;34.73;19.73;;;;;;;0.33;85.01;100063.30;1774819;80;21034;-74
2022/02/16 03:16:55;;;;;;;31.97;21.67;;;;;;;0.34;85.01;100060.46;1739141;81;21088;-73
2022/02/16 03:19:22;;;;;;;33.30;22.67;;;;;;;0.35;85.08;100066.09;1752835;81;21546;-74
2022/02/16 03:21:49;;;;;;;37.77;25.73;;;;;;;0.35;85.18;100065.25;1757576;81;21515;-73
2022/02/16 03:24:16;;;;;;;46.20;28.47;;;;;;;0.37;85.36;100068.07;1735270;81;21081;-73
2022/02/16 03:26:42;;;;;;;30.57;23.07;;;;;;;0.38;85.47;100068.89;1765241;80;21076;-73
2022/02/16 03:29:09;;;;;;;31.13;22.10;;;;;;;0.47;85.64;100067.84;1753327;80;21088;-74
2022/02/16 03:31:39;;;;;;;34.60;20.83;;;;;;;0.48;85.59;100060.73;1700479;83;21004;-74
2022/02/16 03:34:06;;;;;;;34.47;21.97;;;;;;;0.49;85.64;100063.18;1696829;83;21013;-73
2022/02/16 03:36:34;;;;;;;38.10;20.90;;;;;;;0.53;85.77;100059.17;1711994;82;21053;-73
2022/02/16 03:39:00;;;;;;;34.00;20.10;;;;;;;0.62;85.86;100062.61;1738525;82;21618;-73
2022/02/16 03:41:28;;;;;;;30.90;21.83;;;;;;;0.65;85.77;100052.49;1727003;82;22100;-75
2022/02/16 03:43:57;;;;;;;34.03;20.23;;;;;;;0.63;85.76;100054.47;1720440;83;20949;-74
2022/02/16 03:46:26;;;;;;;28.13;17.97;;;;;;;0.63;85.90;100047.86;1719862;83;20994;-73
2022/02/16 03:48:53;;;;;;;30.43;18.37;;;;;;;0.64;86.11;100050.83;1683919;84;20979;-75
2022/02/16 03:51:19;;;;;;;31.67;18.77;;;;;;;0.61;86.17;100045.91;1688836;84;21059;-75
2022/02/16 03:53:47;;;;;;;35.60;19.43;;;;;;;0.61;86.39;100049.05;1692187;84;20996;-75
2022/02/16 03:56:13;;;;;;;38.73;20.90;;;;;;;0.61;86.54;100049.88;1710823;83;20980;-73
2022/02/16 03:58:41;;;;;;;30.23;18.63;;;;;;;0.65;86.64;100049.02;1698292;83;20968;-73
2022/02/16 04:01:08;;;;;;;29.33;19.77;;;;;;;0.69;86.78;100043.19;1718799;83;20941;-74
2022/02/16 04:03:36;;;;;;;27.30;17.37;;;;;;;0.68;86.84;100040.71;1731449;82;21539;-74
2022/02/16 04:06:03;;;;;;;20.93;14.80;;;;;;;0.72;87.03;100036.20;1698169;83;21032;-73
2022/02/16 04:08:30;;;;;;;23.27;16.70;;;;;;;0.81;87.16;100033.84;1718659;83;21022;-73
2022/02/16 04:10:57;;;;;;;27.10;15.37;;;;;;;0.85;87.12;100029.83;1688346;84;21711;-74
2022/02/16 04:13:25;;;;;;;18.20;13.60;;;;;;;0.84;87.12;100032.64;1728780;83;21018;-73
2022/02/16 04:15:52;;;;;;;18.37;13.93;;;;;;;0.82;87.22;100029.34;1730006;82;21081;-74
2022/02/16 04:18:19;;;;;;;21.93;14.30;;;;;;;0.86;87.45;100024.03;1712763;83;22415;-74
2022/02/16 04:20:46;;;;;;;23.67;13.77;;;;;;;0.84;87.44;100024.20;1703910;84;20975;-74
2022/02/16 04:23:13;;;;;;;19.63;13.67;;;;;;;0.86;87.49;100024.03;1681790;84;20991;-73
2022/02/16 04:25:41;;;;;;;19.03;13.83;;;;;;;0.89;87.60;100021.02;1691183;83;21029;-75
2022/02/16 04:28:08;;;;;;;27.37;16.20;;;;;;;0.89;87.60;100021.02;1749438;82;21058;-76
2022/02/16 04:30:35;;;;;;;18.33;12.37;;;;;;;0.91;87.70;100020.35;1749525;81;21130;-74
2022/02/16 04:33:03;;;;;;;20.43;14.07;;;;;;;0.95;87.80;100012.37;1735713;82;21351;-72
2022/02/16 04:35:31;;;;;;;20.63;13.27;;;;;;;1.00;87.81;100011.83;1714927;83;21572;-73
2022/02/16 04:37:57;;;;;;;21.53;13.90;;;;;;;1.04;87.78;100012.61;1689447;85;20994;-72
2022/02/16 04:40:26;;;;;;;24.03;17.27;;;;;;;1.07;87.78;100014.88;1671897;84;20971;-72
2022/02/16 04:42:53;;;;;;;23.70;15.03;;;;;;;1.09;87.79;100009.41;1715621;82;21140;-73
2022/02/16 04:45:20;;;;;;;24.20;16.70;;;;;;;1.13;87.80;100013.34;1738333;81;21046;-74
2022/02/16 04:47:47;;;;;;;20.97;15.33;;;;;;;1.12;87.71;100015.66;1760216;81;21435;-74
2022/02/16 04:50:13;;;;;;;31.87;17.97;;;;;;;1.14;87.74;100015.00;1754200;80;21523;-72
2022/02/16 04:52:40;;;;;;;34.40;19.93;;;;;;;1.17;87.84;100008.00;1752152;80;21542;-75
2022/02/16 04:55:10;;;;;;;25.50;17.37;;;;;;;1.22;87.84;100010.42;1722491;82;21157;-70
2022/02/16 04:57:37;;;;;;;24.17;17.33;;;;;;;1.27;87.84;100005.91;1669038;84;21046;-72
2022/02/16 05:00:06;;;;;;;26.83;15.83;;;;;;;1.32;87.64;100008.84;1693706;84;21564;-72
2022/02/16 05:02:35;;;;;;;20.95;14.75;;;;;;;1.29;87.41;100006.56;1673159;82;21559;-71
2022/02/16 05:05:01;;;;;;;24.33;15.80;;;;;;;1.28;87.45;100007.06;1733693;82;21062;-70
2022/02/16 05:07:29;;;;;;;23.57;15.45;;;;;;;1.26;87.40;100007.73;1722984;82;21146;-74
2022/02/16 05:09:56;;;;;;;29.17;17.63;;;;;;;1.25;87.51;100011.38;1755484;81;21571;-72
2022/02/16 05:12:22;;;;;;;24.97;16.47;;;;;;;1.28;87.56;100008.88;1756704;81;21078;-69
2022/02/16 05:14:51;;;;;;;25.43;17.30;;;;;;;1.28;87.55;100012.36;1715400;81;20970;-73
2022/02/16 05:17:17;;;;;;;24.43;16.70;;;;;;;1.30;87.62;100007.68;1759153;81;20928;-72
2022/02/16 05:19:44;;;;;;;20.48;14.90;;;;;;;1.35;87.68;100012.93;1737319;81;21235;-75
2022/02/16 05:22:11;;;;;;;19.03;13.57;;;;;;;1.34;87.48;100013.96;1759139;81;21278;-76
2022/02/16 05:24:39;;;;;;;19.90;14.75;;;;;;;1.29;87.47;100014.52;1730917;81;20939;-75
2022/02/16 05:27:06;;;;;;;28.77;17.92;;;;;;;1.29;87.62;100021.13;1701215;84;21026;-69
2022/02/16 05:29:33;;;;;;;23.77;16.00;;;;;;;1.30;87.67;100023.58;1684849;81;21066;-71
2022/02/16 05:32:03;;;;;;;23.40;17.60;;;;;;;1.33;87.67;100024.23;1732481;82;22967;-72
2022/02/16 05:34:33;;;;;;;27.22;16.32;;;;;;;1.34;87.72;100014.79;1710643;82;21034;-70
2022/02/16 05:37:00;;;;;;;24.27;19.95;;;;;;;1.40;87.72;100018.51;1735130;81;20983;-70
2022/02/16 05:39:27;;;;;;;23.07;15.65;;;;;;;1.43;87.51;100020.81;1716913;82;21046;-71
2022/02/16 05:41:54;;;;;;;25.02;14.95;;;;;;;1.41;87.38;100029.44;1722227;81;21020;-73
2022/02/16 05:44:20;;;;;;;24.45;13.50;;;;;;;1.41;87.44;100030.77;1751506;81;21068;-73
2022/02/16 05:46:47;;;;;;;22.15;15.43;;;;;;;1.43;87.44;100030.09;1747647;82;21007;-72
2022/02/16 05:49:14;;;;;;;45.10;19.57;;;;;;;1.42;87.37;100035.89;1740479;82;21483;-72
2022/02/16 05:51:41;;;;;;;23.95;16.55;;;;;;;1.39;87.38;100026.16;1725472;82;21027;-71
2022/02/16 05:54:08;;;;;;;23.02;14.90;;;;;;;1.39;87.50;100022.98;1681825;84;21099;-71
2022/02/16 05:56:35;;;;;;;28.38;16.37;;;;;;;1.40;87.58;100015.86;1713026;82;22021;-72
2022/02/16 05:59:02;;;;;;;18.82;14.25;;;;;;;1.39;87.52;100018.22;1749387;81;20887;-76
2022/02/16 06:01:29;;;;;;;20.73;16.33;;;;;;;1.39;87.69;100021.66;1713417;82;20939;-73
2022/02/16 06:03:57;;;;;;;21.25;12.70;;;;;;;1.39;87.79;100015.56;1748637;81;21054;-72
2022/02/16 06:06:25;;;;;;;19.55;14.07;;;;;;;1.40;87.88;100014.03;1747905;82;21023;-74
2022/02/16 06:08:52;;;;;;;21.37;15.83;;;;;;;1.39;87.96;100019.54;1727231;82;22142;-73
2022/02/16 06:11:20;;;;;;;19.75;12.37;;;;;;;1.40;88.10;100019.34;1736098;82;20962;-74
2022/02/16 06:13:48;;;;;;;20.43;13.33;;;;;;;1.40;88.13;100016.69;1748327;81;21031;-74
2022/02/16 06:16:16;;;;;;;18.52;12.88;;;;;;;1.40;88.19;100015.36;1748079;82;21158;-71
2022/02/16 06:18:44;;;;;;;22.58;13.90;;;;;;;1.40;88.32;100014.03;1749345;82;21045;-74
2022/02/16 06:21:10;;;;;;;22.63;14.43;;;;;;;1.42;88.41;100008.56;1749221;81;21961;-73
2022/02/16 06:23:38;;;;;;;18.90;13.40;;;;;;;1.49;88.62;100008.13;1720461;81;21561;-73
2022/02/16 06:26:04;;;;;;;19.45;14.00;;;;;;;1.52;88.55;100009.94;1704243;83;21566;-73
2022/02/16 06:28:31;;;;;;;17.30;13.30;;;;;;;1.52;88.54;100009.94;1704083;84;21042;-73
2022/02/16 06:30:57;;;;;;;22.53;15.93;;;;;;;1.55;88.56;100010.05;1693605;82;20963;-72
2022/02/16 06:33:25;;;;;;;21.65;12.73;;;;;;;1.57;88.62;100008.06;1750407;81;21951;-73
2022/02/16 06:35:52;;;;;;;23.30;13.95;;;;;;;1.58;88.66;100001.23;1736077;82;21603;-74
2022/02/16 06:38:19;;;;;;;20.50;14.80;;;;;;;1.62;88.83;99994.58;1749080;81;21598;-70
2022/02/16 06:40:48;;;;;;;20.10;15.68;;;;;;;1.66;89.04;99991.88;1738732;81;21005;-71
2022/02/16 06:43:15;;;;;;;20.97;15.40;;;;;;;1.69;89.16;99986.69;1721152;81;21569;-73
2022/02/16 06:45:42;;;;;;;20.40;14.58;;;;;;;1.69;89.25;99985.36;1688413;84;21793;-73
2022/02/16 06:48:09;;;;;;;18.80;13.08;;;;;;;1.68;89.47;99986.36;1693153;82;21030;-71
2022/02/16 06:50:36;;;;;;;21.33;14.05;;;;;;;1.63;89.63;99982.94;1722920;83;21078;-73
2022/02/16 06:53:07;;;;;;;19.07;14.55;;;;;;;1.60;90.21;99989.95;1727502;82;20996;-73
2022/02/16 06:55:34;;;;;;;23.90;15.08;;;;;;;1.64;90.46;99977.14;1745576;82;21032;-73
2022/02/16 06:58:01;;;;;;;29.82;18.32;;;;;;;1.71;90.87;99979.38;1719689;81;21004;-74
2022/02/16 07:00:29;;;;;;;27.45;16.87;;;;;;;1.72;91.12;99977.87;1718468;82;20992;-74
2022/02/16 07:02:56;;;;;;;25.00;17.40;;;;;;;1.73;91.11;99974.70;1645849;87;21000;-76
2022/02/16 07:05:33;;;;;;;30.57;16.82;;;;;;;1.77;91.18;99977.33;1690473;84;21019;-74
2022/02/16 07:08:01;;;;;;;23.92;16.65;;;;;;;1.81;91.22;99979.09;1717422;82;21519;-74
2022/02/16 07:10:28;;;;;;;27.80;17.67;;;;;;;1.85;91.23;99975.05;1750308;82;21142;-71
2022/02/16 07:12:57;;;;;;;29.12;19.55;;;;;;;1.87;91.18;99973.84;1718716;82;21076;-71
2022/02/16 07:15:23;;;;;;;33.88;19.30;;;;;;;1.89;91.15;99973.67;1710406;82;20979;-73
2022/02/16 07:17:52;;;;;;;29.00;18.17;;;;;;;1.89;91.18;99969.19;1660493;84;21042;-71
2022/02/16 07:20:19;;;;;;;25.55;16.57;;;;;;;1.93;91.42;99965.15;1714465;83;21051;-71
2022/02/16 07:22:47;;;;;;;24.43;17.02;;;;;;;1.96;91.32;99958.16;1707530;84;21155;-70
2022/02/16 07:25:16;;;;;;;24.43;17.20;;;;;;;1.94;91.34;99955.36;1707533;84;21711;-70
2022/02/16 07:27:44;;;;;;;24.60;17.87;;;;;;;1.90;91.38;99946.14;1707446;82;20935;-72
2022/02/16 07:30:14;;;;;;;31.65;20.80;;;;;;;1.88;91.51;99946.33;1707661;84;21010;-71
2022/02/16 07:32:42;;;;;;;43.28;23.60;;;;;;;1.88;91.82;99950.30;1707451;83;20974;-69
2022/02/16 07:35:11;;;;;;;30.40;21.60;;;;;;;1.83;91.95;99944.73;1706899;84;21931;-69
2022/02/16 07:37:41;;;;;;;33.98;21.57;;;;;;;1.84;92.21;99951.69;1706888;84;21002;-70
2022/02/16 07:40:09;;;;;;;32.20;21.90;;;;;;;1.85;92.50;99946.71;1678513;84;21022;-71
2022/02/16 07:42:36;;;;;;;36.35;23.42;;;;;;;1.85;92.55;99937.93;1706065;81;21010;-71
2022/02/16 07:45:21;;;;;;;32.60;23.07;;;;;;;1.85;92.64;99932.63;1771567;80;20969;-69
2022/02/16 07:47:48;;;;;;;38.42;21.90;;;;;;;1.88;92.62;99937.05;1766438;81;21046;-72
2022/02/16 07:50:15;;;;;;;35.55;21.60;;;;;;;1.88;92.57;99941.02;1757786;80;21001;-71
2022/02/16 07:52:45;;;;;;;30.37;17.65;;;;;;;1.85;92.58;99929.98;1753361;80;21013;-71
2022/02/16 07:55:13;;;;;;;23.22;15.93;;;;;;;1.78;92.69;99931.22;1720835;80;20973;-71
2022/02/16 07:57:40;;;;;;;28.92;16.35;;;;;;;1.82;92.87;99929.03;1717682;83;21161;-71
2022/02/16 08:00:08;;;;;;;21.15;15.18;;;;;;;1.88;93.06;99931.73;1746030;80;21149;-72
2022/02/16 08:02:48;;;;;;;25.10;15.40;;;;;;;1.93;92.92;99934.65;1725179;82;21078;-74
2022/02/16 08:05:16;;;;;;;23.65;16.25;;;;;;;2.00;92.94;99940.03;1732567;81;20969;-73
2022/02/16 08:07:43;;;;;;;26.10;15.80;;;;;;;2.03;92.58;99940.97;1729100;83;21065;-75
2022/02/16 08:10:10;;;;;;;21.12;15.23;;;;;;;1.92;92.43;99936.19;1729272;83;21104;-73
2022/02/16 08:12:52;;;;;;;22.37;16.30;;;;;;;1.89;92.69;99934.71;1732445;81;21073;-73
2022/02/16 08:15:19;;;;;;;20.92;13.60;;;;;;;1.95;92.93;99931.31;1765563;80;22144;-73
2022/02/16 08:17:46;;;;;;;31.50;17.87;;;;;;;1.96;93.08;99930.81;1724972;81;21305;-82
2022/02/16 08:20:13;;;;;;;29.30;17.27;;;;;;;1.96;93.09;99926.34;1733657;81;21026;-73
2022/02/16 08:22:45;;;;;;;27.63;17.37;;;;;;;1.96;93.36;99923.69;1753543;80;21053;-74
2022/02/16 08:25:12;;;;;;;25.27;18.23;;;;;;;1.98;93.53;99924.80;1740237;81;21121;-73
2022/02/16 08:27:43;;;;;;;28.95;18.23;;;;;;;2.01;93.71;99913.33;1695829;83;21550;-73
2022/02/16 08:30:12;;;;;;;21.55;15.20;;;;;;;2.03;93.71;99911.80;1723624;83;20975;-73
2022/02/16 08:32:39;;;;;;;25.77;15.72;;;;;;;2.02;93.71;99914.12;1677651;84;21543;-77
2022/02/16 08:35:09;;;;;;;18.23;14.38;;;;;;;2.02;93.93;99909.64;1700181;82;20946;-74
2022/02/16 08:37:37;;;;;;;22.95;15.65;;;;;;;2.07;94.02;99905.09;1756270;80;21219;-72
2022/02/16 08:40:06;;;;;;;26.85;19.20;;;;;;;2.08;93.92;99911.55;1725432;81;21053;-74
2022/02/16 08:42:33;;;;;;;24.32;18.67;;;;;;;2.03;93.91;99906.48;1726808;81;22083;-70
2022/02/16 08:45:00;;;;;;;32.00;18.65;;;;;;;2.02;94.04;99910.14;1716192;82;21052;-72
2022/02/16 08:47:26;;;;;;;36.35;21.85;;;;;;;2.00;94.15;99898.42;1739817;81;21070;-73
2022/02/16 08:49:52;;;;;;;22.00;15.43;;;;;;;1.99;94.30;99903.41;1739177;81;21099;-69
2022/02/16 08:52:19;;;;;;;22.65;15.10;;;;;;;2.00;94.55;99909.53;1733470;81;21018;-68
2022/02/16 08:54:45;;;;;;;25.32;18.12;;;;;;;2.03;94.55;99904.66;1724533;82;21057;-76
2022/02/16 08:57:12;;;;;;;24.80;18.95;;;;;;;2.03;94.55;99907.31;1739895;81;21481;-69
2022/02/16 08:59:38;;;;;;;22.73;16.42;;;;;;;1.98;94.46;99904.41;1756120;80;21512;-71
2022/02/16 09:02:05;;;;;;;28.55;17.45;;;;;;;2.02;94.88;99902.19;1732466;82;21259;-71
2022/02/16 09:04:32;;;;;;;27.40;18.00;;;;;;;2.01;94.92;99903.22;1727988;81;20949;-71
2022/02/16 09:09:45;;;;;;;31.87;22.55;;;;;;;2.00;95.15;99908.20;1707329;81;21686;-73
2022/02/16 09:12:11;;;;;;;29.98;18.02;;;;;;;2.01;95.42;99908.03;1739415;81;21099;-72
2022/02/16 09:14:38;;;;;;;27.87;18.23;;;;;;;2.03;95.39;99894.55;1732020;81;21122;-75
2022/02/16 09:17:05;;;;;;;30.32;19.73;;;;;;;2.01;95.35;99896.59;1746287;81;20928;-72
2022/02/16 09:19:33;;;;;;;34.25;19.48;;;;;;;2.01;95.37;99892.61;1749601;81;21551;-70
2022/02/16 09:21:59;;;;;;;27.55;18.35;;;;;;;2.03;95.33;99883.95;1735757;81;21514;-70
2022/02/16 09:24:26;;;;;;;23.55;17.90;;;;;;;2.02;95.07;99887.09;1749612;81;21120;-73
2022/02/16 09:26:52;;;;;;;27.85;16.90;;;;;;;2.05;94.85;99889.89;1712788;81;21914;-70
2022/02/16 09:29:19;;;;;;;26.40;17.50;;;;;;;2.08;94.88;99887.67;1734092;81;21101;-68
2022/02/16 09:31:45;;;;;;;32.35;20.25;;;;;;;2.18;94.79;99888.67;1709397;81;20979;-70
2022/02/16 09:34:12;;;;;;;35.55;20.88;;;;;;;2.22;94.33;99884.63;1732595;82;21532;-70
2022/02/16 09:36:38;;;;;;;29.50;18.85;;;;;;;2.22;93.81;99878.49;1710654;82;21129;-71
2022/02/16 09:39:05;;;;;;;24.50;19.07;;;;;;;2.18;93.48;99872.76;1736754;81;21053;-74
2022/02/16 09:41:33;;;;;;;23.42;18.73;;;;;;;2.23;93.49;99870.36;1733266;82;20920;-69
2022/02/16 09:44:00;;;;;;;23.30;16.67;;;;;;;2.24;93.02;99869.85;1751079;81;20984;-69
2022/02/16 09:46:27;;;;;;;26.57;17.12;;;;;;;2.29;93.04;99867.44;1746788;82;21036;-70
2022/02/16 09:48:56;;;;;;;23.87;16.40;;;;;;;2.32;92.58;99861.23;1714021;82;21091;-70
2022/02/16 09:51:22;;;;;;;28.62;18.92;;;;;;;2.27;92.16;99860.99;1724385;82;21115;-71
2022/02/16 09:53:49;;;;;;;22.55;16.10;;;;;;;2.33;92.31;99859.41;1745704;82;21063;-69
2022/02/16 09:56:16;;;;;;;22.32;17.17;;;;;;;2.41;92.36;99856.60;1729514;82;20991;-69
2022/02/16 09:58:42;;;;;;;24.18;17.75;;;;;;;2.49;92.11;99854.65;1751404;81;21026;-71
2022/02/16 10:01:12;;;;;;;26.30;18.92;;;;;;;2.59;91.89;99852.44;1720868;81;21129;-73
2022/02/16 10:04:01;;;;;;;29.80;18.27;;;;;;;2.60;91.04;99846.63;1711585;82;21039;-72
2022/02/16 10:06:42;;;;;;;19.50;14.98;;;;;;;2.56;90.76;99844.88;1749798;82;21649;-73
2022/02/16 10:09:08;;;;;;;26.82;19.70;;;;;;;2.61;90.70;99835.00;1735868;82;21011;-74
2022/02/16 10:11:36;;;;;;;26.82;17.80;;;;;;;2.63;90.11;99832.98;1674460;83;21029;-73
2022/02/16 10:14:15;;;;;;;26.57;16.73;;;;;;;2.63;89.75;99823.70;1689702;82;21050;-72
2022/02/16 10:16:41;;;;;;;27.95;18.57;;;;;;;2.65;89.46;99818.98;1751533;82;21126;-72
2022/02/16 10:19:08;;;;;;;24.52;18.42;;;;;;;2.73;89.29;99814.05;1736010;82;21028;-72
2022/02/16 10:21:34;;;;;;;30.82;21.23;;;;;;;2.76;89.08;99805.17;1745300;82;20958;-70
2022/02/16 10:24:01;;;;;;;25.52;17.02;;;;;;;2.75;88.81;99796.88;1733391;81;21104;-72
2022/02/16 10:26:54;;;;;;;25.48;18.02;;;;;;;2.79;88.79;99795.47;1751943;82;21559;-74
2022/02/16 10:29:24;;;;;;;;;;;;;;;2.85;88.68;99795.20;1753098;81;21349;-72
2022/02/16 10:31:53;;;;;;;26.50;18.65;;;;;;;2.83;88.09;99790.07;1707531;83;20195;-73
2022/02/16 10:34:20;;;;;;;23.40;17.27;;;;;;;2.80;87.85;99790.98;1706234;83;21617;-76
2022/02/16 10:36:47;;;;;;;27.20;18.00;;;;;;;2.80;87.77;99783.84;1711227;82;21028;-73
2022/02/16 10:39:19;;;;;;;24.77;17.15;;;;;;;2.83;87.34;99790.07;1751518;82;21273;-73
2022/02/16 10:41:49;;;;;;;27.02;17.77;;;;;;;2.84;86.97;99787.73;1751637;81;22092;-71
2022/02/16 10:44:30;;;;;;;22.50;15.28;;;;;;;2.86;86.57;99784.38;1748254;81;21107;-73
2022/02/16 10:47:10;;;;;;;22.15;16.70;;;;;;;2.92;86.54;99776.14;1727088;81;21542;-75
2022/02/16 10:49:46;;;;;;;21.90;17.73;;;;;;;3.02;85.99;99768.62;1716002;83;21105;-82
2022/02/16 10:52:19;;;;;;;21.97;16.05;;;;;;;3.09;85.66;99765.46;1741622;81;21555;-74
2022/02/16 10:54:58;;;;;;;21.62;16.42;;;;;;;3.14;85.11;99766.19;1717987;82;21744;-75
2022/02/16 10:57:28;;;;;;;24.70;19.20;;;;;;;3.15;84.99;99770.49;1705406;83;20985;-74
2022/02/16 10:59:57;;;;;;;24.85;17.75;;;;;;;3.19;84.82;99757.11;1705414;84;21542;-73
2022/02/16 11:02:24;;;;;;;23.35;17.42;;;;;;;3.19;84.45;99755.27;1738721;81;21544;-73
2022/02/16 11:04:53;;;;;;;27.85;19.20;;;;;;;3.20;84.59;99752.11;1738258;82;21192;-74
2022/02/16 11:07:22;;;;;;;32.10;20.68;;;;;;;3.16;84.79;99755.69;1737364;81;21359;-76
2022/02/16 11:09:52;;;;;;;32.73;20.62;;;;;;;3.16;85.26;99754.86;1712262;82;20957;-81
2022/02/16 11:12:19;;;;;;;34.38;24.32;;;;;;;3.10;85.82;99747.68;1735819;82;20977;-77
2022/02/16 11:14:45;;;;;;;27.20;16.82;;;;;;;3.08;86.08;99747.88;1717066;81;21027;-76
2022/02/16 11:17:12;;;;;;;22.35;15.65;;;;;;;3.16;85.90;99733.09;1752305;81;21047;-75
2022/02/16 11:19:40;;;;;;;22.27;16.02;;;;;;;3.20;85.18;99733.51;1747424;81;20982;-86
2022/02/16 11:22:14;;;;;;;25.88;16.77;;;;;;;3.20;84.95;99732.17;1723001;82;20958;-81
2022/02/16 11:24:43;;;;;;;26.00;15.83;;;;;;;3.22;84.44;99724.30;1700651;83;21055;-86
2022/02/16 11:27:40;;;;;;;23.32;17.45;;;;;;;3.16;84.48;99725.13;1722317;83;21025;-74
2022/02/16 11:30:12;;;;;;;25.65;18.23;;;;;;;3.11;84.59;99726.74;1698638;83;21037;-77